Terminal Aerodrome Forecast
Issued by NWS Twin Cities, MN

Home | Current Version | Previous Version | Graphics & Text | Print | Product List | Glossary On
Versions: 1 2 3 4 5 6 7 8 9 10 11 12 13 14 15 16 17 18 19 20 21 22
000
FTUS43 KMPX 252327
TAFEAU
TAF
KEAU 252327Z 2600/2624 24012KT P6SM VCSH SCT025 BKN040
      TEMPO 2600/2603 6SM -SHRA
     FM260300 20004KT P6SM SCT025
     FM260800 VRB03KT 3SM BR SCT012
     FM260900 VRB03KT 2SM BR OVC005
     FM261300 24004KT 4SM BR SCT008 OVC012
     FM261500 26003KT P6SM SCT012 OVC050=

USA.gov is the U.S. government's official web portal to all federal, state and local government web resources and services.